Time;durP1;ratioP1;P1;durP2;ratioP2;P2;SDS_P1;SDS_P2;PMS_P1;PMS_P2;Temp;Humidity;BMP_temperature;BMP_pressure;BME280_temperature;BME280_humidity;BME280_pressure;Samples;Min_cycle;Max_cycle;Signal;HPM_P1;HPM_P2
2021/11/10 00:01:20;;;;;;;1.00;0.77;;;5.40;91.10;;;;;;5095579;28;20040;-81
2021/11/10 00:03:46;;;;;;;1.02;0.88;;;5.40;91.10;;;;;;5095406;28;20122;-81
2021/11/10 00:06:12;;;;;;;0.85;0.63;;;5.40;91.20;;;;;;5113493;28;20039;-81
2021/11/10 00:08:38;;;;;;;2.38;0.70;;;5.30;91.20;;;;;;5114061;28;20040;-81
2021/11/10 00:11:03;;;;;;;1.35;0.80;;;5.30;91.20;;;;;;5097231;28;20044;-82
2021/11/10 00:13:29;;;;;;;0.93;0.70;;;5.30;91.20;;;;;;5113303;28;20556;-82
2021/11/10 00:15:55;;;;;;;1.70;0.77;;;5.30;91.20;;;;;;5094987;28;20039;-82
2021/11/10 00:18:23;;;;;;;1.15;0.75;;;5.20;91.20;;;;;;5062276;28;20023;-82
2021/11/10 00:20:49;;;;;;;1.38;0.85;;;5.20;91.20;;;;;;5094838;28;20393;-82
2021/11/10 00:23:15;;;;;;;1.60;0.77;;;5.30;91.20;;;;;;5113205;28;20039;-82
2021/11/10 00:25:41;;;;;;;1.33;0.75;;;5.20;91.20;;;;;;5113039;28;20396;-82
2021/11/10 00:28:07;;;;;;;1.25;0.60;;;5.10;91.20;;;;;;5095207;28;20042;-82
2021/11/10 00:30:33;;;;;;;2.28;0.77;;;5.10;91.20;;;;;;5113108;28;20221;-82
2021/11/10 00:32:59;;;;;;;0.73;0.70;;;5.10;91.20;;;;;;5095039;28;20046;-82
2021/11/10 00:35:25;;;;;;;1.10;0.80;;;5.10;91.20;;;;;;5094792;28;20154;-81
2021/11/10 00:37:50;;;;;;;1.50;0.90;;;5.00;91.20;;;;;;5094596;28;20040;-82
2021/11/10 00:40:17;;;;;;;1.40;0.75;;;5.00;91.20;;;;;;5096991;28;20087;-82
2021/11/10 00:42:42;;;;;;;1.50;0.90;;;5.00;91.20;;;;;;5077686;28;20048;-82
2021/11/10 00:45:09;;;;;;;1.02;0.73;;;5.00;91.20;;;;;;5094500;28;20090;-82
2021/11/10 00:47:34;;;;;;;1.08;0.50;;;5.00;91.30;;;;;;5096391;28;20061;-82
2021/11/10 00:50:01;;;;;;;0.93;0.75;;;5.00;91.30;;;;;;5095046;28;20428;-82
2021/11/10 00:52:26;;;;;;;0.93;0.73;;;4.80;91.20;;;;;;5093561;28;20043;-82
2021/11/10 00:54:53;;;;;;;0.70;0.50;;;4.90;91.30;;;;;;5077258;28;20042;-82
2021/11/10 00:57:19;;;;;;;1.42;0.80;;;4.90;91.30;;;;;;5060783;28;20397;-82
2021/11/10 00:59:45;;;;;;;1.40;0.77;;;4.80;91.30;;;;;;5096416;28;20580;-82
2021/11/10 01:02:11;;;;;;;1.30;0.77;;;4.80;91.30;;;;;;5114963;28;20075;-82
2021/11/10 01:04:37;;;;;;;1.15;0.85;;;4.70;91.30;;;;;;5094289;28;20047;-82
2021/11/10 01:07:03;;;;;;;0.68;0.60;;;4.70;91.40;;;;;;5077366;28;20035;-82
2021/11/10 01:09:30;;;;;;;0.73;0.60;;;4.70;91.40;;;;;;5077674;28;20050;-82
2021/11/10 01:11:56;;;;;;;1.23;0.73;;;4.60;91.40;;;;;;5094525;28;20040;-82
2021/11/10 01:14:22;;;;;;;1.15;0.73;;;4.60;91.40;;;;;;5079361;28;20042;-82
2021/11/10 01:16:48;;;;;;;1.10;0.77;;;4.60;91.30;;;;;;5096168;28;20039;-82
2021/11/10 01:19:14;;;;;;;0.63;0.50;;;4.50;91.30;;;;;;5096473;28;20040;-82
2021/11/10 01:21:40;;;;;;;1.00;0.77;;;4.50;91.30;;;;;;5060641;28;20028;-82
2021/11/10 01:24:07;;;;;;;1.00;0.60;;;4.60;91.40;;;;;;5077450;28;20032;-81
2021/11/10 01:26:32;;;;;;;1.58;0.80;;;4.50;91.40;;;;;;5112339;28;20043;-82
2021/11/10 01:28:58;;;;;;;1.77;0.75;;;4.50;91.40;;;;;;5094478;28;20039;-82
2021/11/10 01:31:24;;;;;;;1.30;0.75;;;4.50;91.30;;;;;;5096334;28;20043;-82
2021/11/10 01:33:52;;;;;;;2.03;1.00;;;4.50;91.30;;;;;;5077382;28;20055;-82
2021/11/10 01:36:18;;;;;;;0.60;0.60;;;4.50;91.40;;;;;;5093883;28;20457;-82
2021/11/10 01:38:44;;;;;;;1.15;0.90;;;4.50;91.40;;;;;;5094333;28;20038;-82
2021/11/10 01:41:10;;;;;;;1.52;0.70;;;4.50;91.40;;;;;;5094432;28;20035;-82
2021/11/10 01:43:37;;;;;;;1.40;0.75;;;4.50;91.30;;;;;;5060370;28;20445;-82
2021/11/10 01:46:03;;;;;;;0.40;0.40;;;4.50;91.30;;;;;;5094219;28;20046;-82
2021/11/10 01:48:28;;;;;;;0.82;0.57;;;4.50;91.30;;;;;;5079299;28;20131;-82
2021/11/10 01:50:54;;;;;;;0.50;0.40;;;4.50;91.30;;;;;;5112006;28;20511;-82
2021/11/10 01:53:20;;;;;;;1.10;0.60;;;4.40;91.30;;;;;;5112205;28;20374;-82
2021/11/10 01:55:46;;;;;;;0.52;0.47;;;4.40;91.30;;;;;;5037355;28;20131;-82
2021/11/10 01:58:12;;;;;;;0.65;0.40;;;4.40;91.30;;;;;;5032474;28;20037;-82
2021/11/10 02:00:41;;;;;;;0.75;0.52;;;4.40;91.30;;;;;;5035742;28;20098;-82
2021/11/10 02:03:08;;;;;;;0.82;0.65;;;4.40;91.30;;;;;;5069341;28;20037;-82
2021/11/10 02:05:34;;;;;;;1.65;0.88;;;4.40;91.30;;;;;;5056190;28;20091;-82
2021/11/10 02:08:00;;;;;;;0.63;0.60;;;4.40;91.30;;;;;;5055851;28;20394;-82
2021/11/10 02:10:26;;;;;;;0.75;0.60;;;4.20;91.30;;;;;;5072395;28;20039;-82
2021/11/10 02:12:55;;;;;;;0.55;0.55;;;4.30;91.30;;;;;;5055896;28;20040;-82
2021/11/10 02:15:24;;;;;;;0.80;0.50;;;4.20;91.40;;;;;;5055396;28;20414;-82
2021/11/10 02:17:54;;;;;;;1.20;0.70;;;4.20;91.40;;;;;;5039212;28;20131;-82
2021/11/10 02:20:20;;;;;;;0.88;0.55;;;4.20;91.40;;;;;;5039315;28;20039;-82
2021/11/10 02:22:49;;;;;;;0.85;0.70;;;4.20;91.40;;;;;;5055596;28;20509;-82
2021/11/10 02:25:15;;;;;;;2.00;1.02;;;4.20;91.40;;;;;;5039174;28;20048;-82
2021/11/10 02:27:42;;;;;;;0.73;0.52;;;4.20;91.40;;;;;;5110795;28;20051;-82
2021/11/10 02:30:13;;;;;;;2.47;0.80;;;4.20;91.40;;;;;;5096998;28;20040;-82
2021/11/10 02:32:45;;;;;;;1.48;0.60;;;4.20;91.40;;;;;;5097193;28;20054;-82
2021/11/10 02:35:18;;;;;;;0.80;0.55;;;4.10;91.40;;;;;;5096557;28;20040;-82
2021/11/10 02:37:47;;;;;;;1.17;0.80;;;4.20;91.40;;;;;;5080133;28;20081;-82
2021/11/10 02:40:13;;;;;;;1.17;0.90;;;4.10;91.40;;;;;;5080055;28;20040;-82
2021/11/10 02:42:40;;;;;;;0.90;0.50;;;4.20;91.40;;;;;;5079682;28;20042;-82
2021/11/10 02:45:07;;;;;;;0.65;0.50;;;4.10;91.40;;;;;;5097295;28;20075;-82
2021/11/10 02:47:34;;;;;;;1.75;0.70;;;4.20;91.40;;;;;;5097265;28;20062;-82
2021/11/10 02:50:00;;;;;;;1.17;0.70;;;4.10;91.40;;;;;;5096197;28;20553;-82
2021/11/10 02:52:27;;;;;;;0.60;0.50;;;4.20;91.40;;;;;;5079567;28;20044;-82
2021/11/10 02:54:54;;;;;;;1.20;0.68;;;4.10;91.60;;;;;;5114416;28;20464;-82
2021/11/10 02:57:21;;;;;;;1.05;0.60;;;4.10;91.40;;;;;;5080820;28;20561;-83
2021/11/10 02:59:48;;;;;;;0.75;0.45;;;4.10;91.40;;;;;;5097595;28;20508;-83
2021/11/10 03:02:22;;;;;;;1.40;0.60;;;4.20;91.40;;;;;;5098107;28;20039;-83
2021/11/10 03:04:48;;;;;;;0.57;0.50;;;4.10;91.40;;;;;;5096585;28;20100;-83
2021/11/10 03:07:14;;;;;;;0.77;0.55;;;4.10;91.30;;;;;;5079501;28;20097;-83
2021/11/10 03:09:44;;;;;;;2.17;1.00;;;4.10;91.40;;;;;;5079447;28;20540;-83
2021/11/10 03:12:12;;;;;;;0.57;0.43;;;4.10;91.40;;;;;;5079806;28;20039;-83
2021/11/10 03:14:40;;;;;;;1.33;0.70;;;4.10;91.40;;;;;;5096684;28;20124;-83
2021/11/10 03:17:09;;;;;;;0.60;0.50;;;4.00;91.40;;;;;;5062633;28;20039;-83
2021/11/10 03:19:35;;;;;;;1.38;0.90;;;4.10;91.40;;;;;;5079438;28;20036;-83
2021/11/10 03:22:02;;;;;;;0.93;0.80;;;4.10;91.40;;;;;;5096006;28;20059;-83
2021/11/10 03:24:28;;;;;;;1.50;0.70;;;4.00;91.40;;;;;;5079178;28;20048;-83
2021/11/10 03:26:54;;;;;;;0.90;0.70;;;4.00;91.40;;;;;;5079199;28;20519;-83
2021/11/10 03:29:20;;;;;;;2.28;0.93;;;4.00;91.40;;;;;;5096129;28;20031;-83
2021/11/10 03:31:46;;;;;;;0.70;0.55;;;4.00;91.40;;;;;;5062566;28;20062;-83
2021/11/10 03:34:12;;;;;;;1.05;0.77;;;4.00;91.40;;;;;;5079468;28;20040;-83
2021/11/10 03:36:38;;;;;;;0.73;0.50;;;4.00;91.40;;;;;;5114485;28;20039;-83
2021/11/10 03:39:06;;;;;;;0.80;0.50;;;3.90;91.40;;;;;;5063008;28;20393;-83
2021/11/10 03:41:33;;;;;;;0.80;0.52;;;4.00;91.40;;;;;;5080852;28;20043;-83
2021/11/10 03:43:58;;;;;;;0.80;0.60;;;3.90;91.40;;;;;;5096570;28;20046;-83
2021/11/10 03:46:27;;;;;;;1.20;0.82;;;4.00;91.50;;;;;;5079324;28;20048;-83
2021/11/10 03:48:53;;;;;;;1.13;0.70;;;3.90;91.40;;;;;;5079478;28;20422;-82
2021/11/10 03:51:19;;;;;;;0.55;0.50;;;3.90;91.40;;;;;;5079707;28;20442;-83
2021/11/10 03:53:46;;;;;;;0.80;0.60;;;3.90;91.40;;;;;;5079097;28;20063;-83
2021/11/10 03:56:12;;;;;;;1.42;0.70;;;3.90;91.40;;;;;;5097396;28;20401;-83
2021/11/10 03:58:38;;;;;;;1.58;0.52;;;3.80;91.40;;;;;;5080338;28;20047;-83
2021/11/10 04:01:05;;;;;;;0.70;0.47;;;3.80;91.40;;;;;;5096130;28;20032;-84
2021/11/10 04:03:32;;;;;;;0.60;0.60;;;3.90;91.40;;;;;;5078722;28;20130;-84
2021/11/10 04:05:59;;;;;;;0.85;0.60;;;3.80;91.40;;;;;;5062041;28;20043;-83
2021/11/10 04:08:24;;;;;;;0.40;0.40;;;3.80;91.40;;;;;;5061833;28;20062;-83
2021/11/10 04:10:50;;;;;;;0.60;0.50;;;3.80;91.50;;;;;;5097244;28;20052;-83
2021/11/10 04:13:16;;;;;;;0.80;0.50;;;3.80;91.50;;;;;;5096848;28;20043;-83
2021/11/10 04:15:42;;;;;;;1.02;0.80;;;3.70;91.40;;;;;;5079534;28;20142;-83
2021/11/10 04:18:08;;;;;;;0.65;0.45;;;3.80;91.50;;;;;;5113526;28;20059;-83
2021/11/10 04:20:35;;;;;;;1.35;0.60;;;3.70;91.50;;;;;;5079225;28;20066;-83
2021/11/10 04:23:01;;;;;;;0.52;0.52;;;3.80;91.50;;;;;;5065361;28;20031;-83
2021/11/10 04:25:27;;;;;;;1.05;0.60;;;3.80;91.50;;;;;;5082640;28;20040;-83
2021/11/10 04:27:53;;;;;;;0.70;0.60;;;3.70;91.50;;;;;;5094620;28;20049;-83
2021/11/10 04:30:19;;;;;;;1.50;0.65;;;3.60;91.50;;;;;;5079761;28;20043;-83
2021/11/10 04:32:45;;;;;;;1.10;0.80;;;3.70;91.50;;;;;;5062857;28;20036;-83
2021/11/10 04:35:13;;;;;;;0.88;0.60;;;3.60;91.50;;;;;;5061985;28;20040;-83
2021/11/10 04:37:39;;;;;;;1.52;0.70;;;3.60;91.50;;;;;;5095163;28;20082;-83
2021/11/10 04:40:08;;;;;;;1.25;0.60;;;3.60;91.50;;;;;;5061831;28;20079;-83
2021/11/10 04:42:34;;;;;;;0.80;0.60;;;3.50;91.50;;;;;;5078676;28;20051;-83
2021/11/10 04:45:09;;;;;;;0.65;0.50;;;3.60;91.60;;;;;;5113769;28;20505;-83
2021/11/10 04:47:35;;;;;;;0.77;0.50;;;3.50;91.50;;;;;;5098620;28;20103;-83
2021/11/10 04:50:04;;;;;;;0.70;0.50;;;3.50;91.60;;;;;;5062089;28;20058;-83
2021/11/10 04:52:31;;;;;;;0.70;0.52;;;3.50;91.60;;;;;;5062391;28;20035;-83
2021/11/10 04:54:56;;;;;;;1.52;0.75;;;3.50;91.60;;;;;;5078006;28;20381;-83
2021/11/10 04:57:22;;;;;;;0.73;0.50;;;3.50;91.60;;;;;;5096042;28;20043;-84
2021/11/10 04:59:48;;;;;;;0.50;0.45;;;3.50;91.60;;;;;;5094805;28;20046;-83
2021/11/10 05:04:47;;;;;;;0.75;0.52;;;3.50;91.60;;;;;;5113068;28;20089;-83
2021/11/10 05:07:13;;;;;;;2.10;0.95;;;3.50;91.60;;;;;;5094691;28;20040;-84
2021/11/10 05:09:39;;;;;;;0.52;0.52;;;3.50;91.60;;;;;;5094715;28;20047;-84
2021/11/10 05:12:06;;;;;;;1.30;0.70;;;3.40;91.60;;;;;;5116186;28;20054;-83
2021/11/10 05:14:31;;;;;;;1.38;0.65;;;3.50;91.60;;;;;;5077573;28;20040;-83
2021/11/10 05:16:57;;;;;;;0.57;0.50;;;3.50;91.90;;;;;;5113298;28;20036;-84
2021/11/10 05:19:23;;;;;;;1.23;0.60;;;3.50;91.60;;;;;;5061252;28;20043;-84
2021/11/10 05:21:49;;;;;;;0.80;0.55;;;3.40;91.60;;;;;;5077990;28;20044;-84
2021/11/10 05:24:15;;;;;;;0.68;0.50;;;3.30;91.60;;;;;;5078088;28;20043;-83
2021/11/10 05:26:41;;;;;;;0.60;0.60;;;3.30;91.60;;;;;;5078584;28;20122;-83
2021/11/10 05:29:08;;;;;;;0.68;0.50;;;3.30;91.60;;;;;;5113964;28;20488;-84
2021/11/10 05:31:34;;;;;;;0.85;0.60;;;3.40;91.90;;;;;;5065224;28;20060;-84
2021/11/10 05:34:00;;;;;;;0.32;0.30;;;3.40;91.60;;;;;;5078832;28;20428;-84
2021/11/10 05:36:26;;;;;;;1.10;0.60;;;3.40;91.60;;;;;;5080314;28;20050;-84
2021/11/10 05:38:52;;;;;;;2.03;0.70;;;3.40;91.60;;;;;;5080106;28;20131;-84
2021/11/10 05:41:18;;;;;;;0.47;0.40;;;3.30;91.60;;;;;;5064849;28;20032;-84
2021/11/10 05:43:44;;;;;;;1.52;0.60;;;3.30;91.60;;;;;;5099157;28;20032;-83
2021/11/10 05:46:10;;;;;;;1.08;0.70;;;3.30;91.60;;;;;;5098729;28;20089;-85
2021/11/10 05:48:36;;;;;;;0.70;0.52;;;3.30;91.60;;;;;;5081734;28;20074;-84
2021/11/10 05:51:03;;;;;;;0.45;0.30;;;3.30;91.60;;;;;;5065207;28;20047;-84
2021/11/10 05:53:29;;;;;;;0.82;0.50;;;3.20;91.60;;;;;;5099598;28;20044;-84
2021/11/10 05:55:56;;;;;;;0.90;0.80;;;3.20;91.60;;;;;;5099793;28;20051;-84
2021/11/10 05:58:27;;;;;;;0.75;0.57;;;3.20;91.60;;;;;;5084193;28;20063;-84
2021/11/10 06:00:56;;;;;;;0.60;0.40;;;3.20;91.60;;;;;;5068933;28;20051;-84
2021/11/10 06:03:22;;;;;;;1.10;0.63;;;3.20;91.60;;;;;;5064453;28;20031;-84
2021/11/10 06:05:51;;;;;;;1.17;0.75;;;3.20;91.60;;;;;;5098984;28;20043;-84
2021/11/10 06:08:17;;;;;;;0.65;0.50;;;3.20;91.60;;;;;;5096114;28;20042;-84
2021/11/10 06:10:42;;;;;;;0.50;0.40;;;3.50;91.70;;;;;;5064627;28;20051;-84
2021/11/10 06:13:08;;;;;;;0.50;0.50;;;3.20;91.60;;;;;;5064745;28;20101;-85
2021/11/10 06:15:34;;;;;;;0.70;0.60;;;3.20;91.60;;;;;;5081474;28;20501;-84
2021/11/10 06:18:00;;;;;;;1.20;0.90;;;3.30;91.70;;;;;;5116375;28;20035;-84
2021/11/10 06:20:26;;;;;;;0.98;0.60;;;3.20;91.60;;;;;;5082482;28;20393;-85
2021/11/10 06:22:52;;;;;;;1.00;0.70;;;3.20;91.60;;;;;;5082961;28;20457;-85
2021/11/10 06:25:17;;;;;;;1.80;0.70;;;3.20;91.60;;;;;;5083495;28;20099;-84
2021/11/10 06:27:43;;;;;;;0.55;0.55;;;3.20;91.60;;;;;;5067651;28;20043;-84
2021/11/10 06:30:10;;;;;;;1.80;0.70;;;3.20;91.60;;;;;;5083143;28;20043;-84
2021/11/10 06:32:36;;;;;;;1.20;0.70;;;3.20;91.70;;;;;;5084082;28;20505;-84
2021/11/10 06:35:04;;;;;;;0.68;0.63;;;3.20;91.60;;;;;;5098117;28;20100;-85
2021/11/10 06:37:30;;;;;;;0.65;0.60;;;3.10;91.60;;;;;;5099474;28;20046;-84
2021/11/10 06:39:59;;;;;;;1.23;0.73;;;3.30;91.70;;;;;;5083184;28;20043;-84
2021/11/10 06:42:25;;;;;;;0.88;0.50;;;3.20;91.70;;;;;;5083842;28;20085;-84
2021/11/10 06:44:51;;;;;;;0.70;0.50;;;3.20;91.70;;;;;;5084304;28;20043;-84
2021/11/10 06:47:17;;;;;;;0.60;0.50;;;3.10;91.70;;;;;;5080770;28;20129;-85
2021/11/10 06:49:43;;;;;;;1.38;0.70;;;3.20;91.70;;;;;;5081448;28;20047;-84
2021/11/10 06:52:10;;;;;;;1.38;0.82;;;3.10;91.60;;;;;;5063915;28;20053;-85
2021/11/10 06:54:36;;;;;;;0.60;0.50;;;3.10;91.60;;;;;;5063897;28;20044;-85
2021/11/10 06:57:02;;;;;;;0.63;0.50;;;3.10;91.70;;;;;;5063669;28;20054;-85
2021/11/10 06:59:27;;;;;;;0.60;0.60;;;3.10;91.70;;;;;;5080694;28;20379;-85
2021/11/10 07:01:56;;;;;;;0.90;0.57;;;3.10;91.70;;;;;;5063151;28;20101;-85
2021/11/10 07:04:22;;;;;;;0.95;0.55;;;3.10;91.70;;;;;;5079867;28;20100;-85
2021/11/10 07:06:47;;;;;;;0.73;0.55;;;3.10;91.70;;;;;;5066449;28;20040;-84
2021/11/10 07:09:16;;;;;;;0.90;0.70;;;3.10;91.70;;;;;;5068271;28;20042;-81
2021/11/10 07:11:42;;;;;;;1.13;0.80;;;3.10;91.70;;;;;;5057302;28;20048;-83
2021/11/10 07:14:09;;;;;;;1.15;0.80;;;3.10;91.70;;;;;;5038941;28;20045;-83
2021/11/10 07:16:35;;;;;;;1.60;0.77;;;3.00;91.70;;;;;;5042997;28;20033;-82
2021/11/10 07:19:02;;;;;;;1.92;0.77;;;3.00;91.70;;;;;;5057721;28;20079;-84
2021/11/10 07:21:28;;;;;;;1.73;0.90;;;3.00;91.70;;;;;;5038845;28;20060;-81
2021/11/10 07:23:55;;;;;;;1.20;0.70;;;3.10;91.70;;;;;;5039521;28;20502;-84
2021/11/10 07:26:21;;;;;;;1.42;0.90;;;3.10;91.60;;;;;;5050606;28;20032;-84
2021/11/10 07:28:46;;;;;;;1.40;0.88;;;3.20;91.70;;;;;;5042316;28;20041;-84
2021/11/10 07:31:12;;;;;;;0.73;0.40;;;3.20;91.60;;;;;;5038770;28;20101;-84
2021/11/10 07:33:38;;;;;;;1.63;0.60;;;3.30;91.60;;;;;;5021745;28;20482;-84
2021/11/10 07:36:04;;;;;;;0.77;0.60;;;3.30;91.60;;;;;;5055251;28;20131;-84
2021/11/10 07:38:30;;;;;;;1.88;0.98;;;3.30;91.60;;;;;;5038376;28;20371;-84
2021/11/10 07:40:57;;;;;;;1.92;0.80;;;3.30;91.50;;;;;;5055286;28;20041;-84
2021/11/10 07:43:53;;;;;;;2.40;0.80;;;3.40;91.50;;;;;;5069055;28;20485;-84
2021/11/10 07:46:32;;;;;;;1.92;0.73;;;3.40;91.50;;;;;;5037909;28;20044;-86
2021/11/10 07:50:00;;;;;;;0.98;0.52;;;3.50;91.50;;;;;;5004414;28;20031;-86
2021/11/10 07:52:28;;;;;;;1.63;0.80;;;3.60;91.40;;;;;;4937329;28;20044;-86
2021/11/10 07:54:54;;;;;;;1.50;0.95;;;3.60;91.30;;;;;;4898711;29;20040;-86
2021/11/10 07:57:20;;;;;;;0.95;0.73;;;3.60;91.30;;;;;;4884163;29;20051;-86
2021/11/10 07:59:46;;;;;;;1.98;0.90;;;3.70;91.30;;;;;;4900019;29;20044;-85
2021/11/10 08:02:12;;;;;;;0.93;0.73;;;3.70;91.30;;;;;;4884547;29;20036;-87
2021/11/10 08:04:38;;;;;;;0.85;0.80;;;3.80;91.30;;;;;;4899846;29;20498;-85
2021/11/10 08:07:03;;;;;;;0.57;0.57;;;3.80;91.30;;;;;;4868201;29;20083;-85
2021/11/10 08:09:29;;;;;;;1.25;0.90;;;3.80;91.30;;;;;;4884200;29;20145;-85
2021/11/10 08:11:55;;;;;;;0.70;0.60;;;3.90;91.30;;;;;;4901228;29;20036;-85
2021/11/10 08:14:21;;;;;;;1.38;0.80;;;3.90;91.30;;;;;;4934219;29;20054;-80
2021/11/10 08:20:50;;;;;;;0.60;0.60;;;4.00;91.30;;;;;;4860479;29;20389;-79
2021/11/10 08:23:20;;;;;;;1.40;0.70;;;4.20;91.20;;;;;;4870108;29;20082;-79
2021/11/10 08:25:47;;;;;;;1.63;0.70;;;4.20;91.20;;;;;;4862180;29;20049;-79
2021/11/10 08:28:13;;;;;;;2.15;0.95;;;4.30;91.10;;;;;;4861801;29;20045;-79
2021/11/10 08:30:39;;;;;;;0.70;0.70;;;4.30;91.10;;;;;;4859759;29;20092;-79
2021/11/10 08:33:05;;;;;;;1.55;1.00;;;4.40;91.00;;;;;;4874676;29;20076;-78
2021/11/10 08:35:31;;;;;;;2.38;1.35;;;4.50;91.00;;;;;;4876658;29;20059;-81
2021/11/10 08:37:57;;;;;;;1.35;1.00;;;4.60;91.00;;;;;;4876714;29;20037;-79
2021/11/10 08:40:26;;;;;;;2.63;1.20;;;4.60;90.90;;;;;;4878845;29;20052;-80
2021/11/10 08:42:52;;;;;;;0.98;0.70;;;4.70;91.00;;;;;;4882952;29;20051;-79
2021/11/10 08:45:24;;;;;;;1.65;0.80;;;4.70;90.90;;;;;;4880526;29;20443;-79
2021/11/10 08:47:52;;;;;;;1.45;0.77;;;4.80;90.80;;;;;;4879927;29;20080;-80
2021/11/10 08:50:21;;;;;;;1.73;0.90;;;4.80;90.70;;;;;;4885347;29;20039;-79
2021/11/10 08:52:48;;;;;;;1.25;0.75;;;4.90;90.70;;;;;;4930989;28;20455;-80
2021/11/10 08:55:17;;;;;;;1.58;0.88;;;5.00;90.80;;;;;;5035357;28;20109;-79
2021/11/10 08:57:45;;;;;;;2.25;0.90;;;5.00;90.80;;;;;;5089956;28;20107;-78
2021/11/10 09:00:14;;;;;;;1.95;1.08;;;5.00;90.80;;;;;;5104687;28;20098;-80
2021/11/10 09:02:40;;;;;;;1.75;0.80;;;5.10;90.80;;;;;;5086349;28;20036;-79
2021/11/10 09:05:07;;;;;;;1.98;1.23;;;5.20;90.80;;;;;;5101503;28;20044;-78
2021/11/10 09:07:34;;;;;;;2.08;1.00;;;5.10;90.70;;;;;;5103094;28;20051;-78
2021/11/10 09:09:59;;;;;;;1.50;1.20;;;5.20;90.80;;;;;;5113022;28;20113;-81
2021/11/10 09:12:54;;;;;;;1.55;0.90;;;5.30;90.70;;;;;;5113060;28;20421;-84
2021/11/10 09:16:28;;;;;;;1.85;0.98;;;5.30;90.70;;;;;;5056227;28;20048;-83
2021/11/10 09:19:04;;;;;;;2.33;1.20;;;5.40;90.70;;;;;;5043462;28;20036;-83
2021/11/10 09:21:30;;;;;;;2.35;1.45;;;5.50;90.70;;;;;;5042057;28;20043;-78
2021/11/10 09:23:56;;;;;;;3.25;1.60;;;5.50;90.60;;;;;;5058936;28;20048;-80
2021/11/10 09:26:22;;;;;;;1.55;1.15;;;5.60;90.50;;;;;;5058028;28;20099;-78
2021/11/10 09:28:50;;;;;;;1.27;1.02;;;5.60;90.40;;;;;;5039908;28;20102;-80
2021/11/10 09:31:17;;;;;;;2.33;1.42;;;5.70;90.40;;;;;;5034110;28;20033;-81
2021/11/10 09:33:44;;;;;;;3.15;1.30;;;5.80;90.40;;;;;;5020664;28;20038;-81
2021/11/10 09:36:26;;;;;;;2.17;1.20;;;5.90;90.40;;;;;;5025735;28;20103;-81
2021/11/10 09:38:51;;;;;;;;;;;6.00;90.40;;;;;;4986267;28;20392;-80
2021/11/10 09:41:17;;;;;;;2.83;1.25;;;6.10;90.30;;;;;;5024183;28;19932;-82
2021/11/10 09:43:43;;;;;;;2.33;1.42;;;6.20;90.20;;;;;;5020313;28;20431;-80
2021/11/10 09:47:08;;;;;;;4.13;1.55;;;6.40;90.10;;;;;;5053634;28;20043;-83
2021/11/10 09:49:34;;;;;;;3.03;1.58;;;6.60;90.00;;;;;;5004327;28;20132;-83
2021/11/10 09:52:01;;;;;;;2.38;1.40;;;6.60;89.70;;;;;;4944921;28;20047;-84
2021/11/10 09:54:51;;;;;;;2.67;1.50;;;6.80;89.60;;;;;;4982412;28;20057;-84
2021/11/10 09:57:34;;;;;;;3.10;1.38;;;6.70;89.90;;;;;;4969079;28;20038;-84
2021/11/10 10:00:01;;;;;;;2.53;1.40;;;7.00;89.60;;;;;;4979735;28;20037;-81
2021/11/10 10:02:54;;;;;;;2.60;1.20;;;6.90;89.50;;;;;;4984747;28;20048;-83
2021/11/10 10:05:21;;;;;;;2.25;1.23;;;6.90;89.60;;;;;;5007978;28;20049;-81
2021/11/10 10:07:52;;;;;;;2.08;1.35;;;6.90;89.60;;;;;;5021614;28;20084;-81
2021/11/10 10:10:19;;;;;;;2.53;1.33;;;7.20;89.80;;;;;;5014327;28;20487;-80
2021/11/10 10:12:48;;;;;;;1.98;1.30;;;6.90;89.70;;;;;;5003764;28;20089;-79
2021/11/10 10:15:14;;;;;;;3.53;1.60;;;7.10;89.80;;;;;;5013957;28;20045;-80
2021/11/10 10:17:43;;;;;;;1.77;1.10;;;7.20;89.60;;;;;;5014464;28;20077;-80
2021/11/10 10:20:28;;;;;;;1.95;1.05;;;7.30;89.40;;;;;;4998651;28;20531;-82
2021/11/10 10:22:56;;;;;;;2.65;1.40;;;7.30;89.30;;;;;;5023988;28;20041;-80
2021/11/10 10:25:49;;;;;;;2.88;1.50;;;7.40;89.30;;;;;;5047695;28;20040;-81
2021/11/10 10:28:18;;;;;;;2.97;1.38;;;7.40;89.20;;;;;;5066361;28;20075;-80
2021/11/10 10:30:54;;;;;;;3.28;1.52;;;7.50;89.20;;;;;;5095840;28;20039;-83
2021/11/10 10:33:34;;;;;;;3.33;1.30;;;7.50;89.20;;;;;;5024444;28;20498;-84
2021/11/10 10:40:22;;;;;;;2.53;1.45;;;7.50;89.30;;;;;;4963356;28;20095;-84
2021/11/10 10:42:48;;;;;;;2.63;1.05;;;7.60;89.20;;;;;;4957017;28;20047;-82
2021/11/10 10:48:30;;;;;;;1.92;1.27;;;7.80;89.70;;;;;;4919482;29;20044;-82
2021/11/10 10:51:28;;;;;;;2.00;1.00;;;7.90;89.10;;;;;;4937360;29;20137;-86
2021/11/10 10:53:54;;;;;;;1.60;1.02;;;7.80;89.10;;;;;;4921956;29;20055;-82
2021/11/10 10:56:37;;;;;;;1.63;1.10;;;7.90;89.10;;;;;;4920702;29;20044;-81
2021/11/10 11:02:46;;;;;;;2.33;1.05;;;8.10;89.10;;;;;;4898388;29;20100;-82
2021/11/10 11:05:46;;;;;;;2.22;1.25;;;8.20;88.80;;;;;;4920265;29;20485;-86
2021/11/10 11:08:33;;;;;;;2.88;1.50;;;8.20;88.70;;;;;;4995951;28;20042;-81
2021/11/10 11:11:23;;;;;;;2.40;1.30;;;8.30;88.70;;;;;;4972736;28;20120;-80
2021/11/10 11:13:52;;;;;;;2.78;1.50;;;8.40;88.60;;;;;;4979099;28;20596;-79
2021/11/10 11:16:21;;;;;;;2.47;1.17;;;8.40;88.50;;;;;;4977202;28;20133;-79
2021/11/10 11:18:48;;;;;;;3.67;1.83;;;8.40;88.50;;;;;;5013275;28;20676;-79
2021/11/10 11:21:23;;;;;;;3.03;1.60;;;8.60;88.40;;;;;;5035634;28;20042;-80
2021/11/10 11:23:50;;;;;;;3.45;1.75;;;8.80;88.10;;;;;;5035191;28;20051;-79
2021/11/10 11:26:35;;;;;;;3.47;1.88;;;8.90;87.90;;;;;;5035141;28;20045;-79
2021/11/10 11:29:20;;;;;;;3.42;1.90;;;8.90;87.50;;;;;;5051863;28;20115;-79
2021/11/10 11:31:46;;;;;;;3.08;1.65;;;9.00;87.40;;;;;;5035109;28;20495;-79
2021/11/10 11:34:11;;;;;;;3.42;1.80;;;9.10;87.30;;;;;;5096137;28;20932;-80
2021/11/10 11:36:48;;;;;;;3.90;1.90;;;9.20;87.30;;;;;;5114513;28;20424;-83
2021/11/10 11:39:14;;;;;;;2.58;1.65;;;9.30;87.00;;;;;;5101319;28;20036;-80
2021/11/10 11:41:40;;;;;;;2.28;1.60;;;9.40;86.90;;;;;;5099919;28;20045;-81
2021/11/10 11:44:06;;;;;;;3.22;1.90;;;9.50;86.70;;;;;;5079315;28;20036;-81
2021/11/10 11:46:39;;;;;;;3.75;1.80;;;9.60;86.60;;;;;;5078969;28;20122;-83
2021/11/10 11:49:05;;;;;;;4.40;1.83;;;9.50;86.50;;;;;;5079127;28;20046;-81
2021/11/10 11:51:33;;;;;;;2.88;1.60;;;9.80;86.60;;;;;;5096093;28;20044;-79
2021/11/10 11:54:01;;;;;;;3.63;1.70;;;9.80;86.50;;;;;;5095564;28;21307;-79
2021/11/10 11:56:28;;;;;;;3.63;1.80;;;9.80;86.40;;;;;;5096457;28;20144;-79
2021/11/10 11:58:57;;;;;;;3.15;1.40;;;9.90;86.30;;;;;;5095874;28;20050;-78
2021/11/10 12:01:26;;;;;;;2.28;1.48;;;10.00;86.30;;;;;;5114164;28;20122;-78
2021/11/10 12:03:57;;;;;;;3.88;1.88;;;10.10;86.30;;;;;;5078944;28;20047;-78
2021/11/10 12:06:25;;;;;;;2.83;1.75;;;10.10;86.20;;;;;;5079275;28;20054;-78
2021/11/10 12:08:56;;;;;;;3.65;1.60;;;10.10;86.20;;;;;;5113852;28;20098;-78
2021/11/10 12:11:26;;;;;;;2.88;1.75;;;10.10;86.20;;;;;;5113789;28;20046;-79
2021/11/10 12:14:15;;;;;;;2.70;1.70;;;10.20;86.70;;;;;;5111695;28;20075;-78
2021/11/10 12:17:12;;;;;;;4.47;2.03;;;10.30;86.00;;;;;;5065088;28;20040;-82
2021/11/10 12:20:04;;;;;;;3.17;1.60;;;10.40;85.90;;;;;;5097906;28;20203;-87
2021/11/10 12:22:32;;;;;;;3.75;1.50;;;10.40;85.80;;;;;;5065660;28;20540;-80
2021/11/10 12:25:00;;;;;;;3.13;1.55;;;10.50;85.80;;;;;;5095830;28;20092;-83
2021/11/10 12:27:37;;;;;;;1.90;1.27;;;10.60;85.80;;;;;;5114642;28;20036;-79
2021/11/10 12:30:10;;;;;;;4.45;1.90;;;10.60;85.70;;;;;;5096672;28;20485;-79
2021/11/10 12:32:47;;;;;;;1.73;1.33;;;10.60;85.70;;;;;;5121419;28;20019;-78
2021/11/10 12:35:25;;;;;;;4.13;1.90;;;10.60;85.70;;;;;;5115559;28;20051;-77
2021/11/10 12:37:54;;;;;;;3.08;1.70;;;10.60;86.30;;;;;;5062937;28;20041;-80
2021/11/10 12:40:30;;;;;;;3.08;1.80;;;10.50;85.70;;;;;;5097954;28;20036;-78
2021/11/10 12:43:14;;;;;;;3.35;1.90;;;10.60;85.70;;;;;;5111455;28;20088;-78
2021/11/10 12:45:53;;;;;;;4.28;2.45;;;10.70;85.70;;;;;;5095771;28;20039;-79
2021/11/10 12:48:41;;;;;;;2.60;1.70;;;10.60;85.60;;;;;;5095750;28;20123;-79
2021/11/10 12:51:18;;;;;;;3.38;1.60;;;10.70;85.70;;;;;;5100270;28;20048;-82
2021/11/10 12:53:46;;;;;;;3.00;1.77;;;10.60;85.80;;;;;;5095754;28;20050;-80
2021/11/10 12:56:12;;;;;;;3.28;1.73;;;10.70;85.80;;;;;;5111956;28;20434;-82
2021/11/10 12:58:40;;;;;;;2.53;1.40;;;10.70;85.80;;;;;;5078577;28;20531;-82
2021/11/10 13:01:08;;;;;;;2.92;1.50;;;10.70;85.90;;;;;;5094602;28;20047;-82
2021/11/10 13:03:36;;;;;;;3.25;1.55;;;10.60;85.90;;;;;;5115248;28;20066;-79
2021/11/10 13:06:25;;;;;;;3.53;1.63;;;10.60;86.00;;;;;;5115118;28;20036;-82
2021/11/10 13:09:14;;;;;;;2.80;1.50;;;10.70;86.20;;;;;;5035419;28;20037;-83
2021/11/10 13:11:41;;;;;;;2.70;1.20;;;10.70;86.20;;;;;;5034455;28;20052;-83
2021/11/10 13:14:13;;;;;;;2.58;1.60;;;10.70;86.20;;;;;;5016986;28;20176;-83
2021/11/10 13:17:00;;;;;;;2.28;1.50;;;10.60;86.20;;;;;;5041819;28;20045;-82
2021/11/10 13:19:44;;;;;;;2.38;1.50;;;10.70;86.30;;;;;;5050277;28;20041;-79
2021/11/10 13:22:16;;;;;;;1.80;1.20;;;10.70;86.20;;;;;;5037152;28;20632;-84
2021/11/10 13:24:43;;;;;;;2.78;1.25;;;10.80;86.20;;;;;;5035427;28;20145;-82